Aérodrome :
LOGIN :

S'inscrire | Disclaimer

   EN    FR    IT 

 










Légende :    VFR   VFR Marginal   IFR   IFR Intensif   IFR Très Intensif
Visi : 
Plafond : 
>= 8 km
>= 3000ft
5 à 8 km
1000 à 3000 ft
1500m à 5 km
500 à 1000 ft
800 à 1500m
200 à 500 ft
< 800m
< 200 ft
Symboles :   Orages  Brouillard  Fortes neiges  Fortes précipitations  Vent > 20 kt
SIGMETs :   Divers  Orages  Givrage  Turbulence  Onde Orograph.  Cendres Volcan.






- Altitude de l'aérodrome : 49 ft
- Code IATA : AOI


LIPY - Ancona Falconara

DERNIER METAR :
  • 250550Z AUTO 22005KT 9999 NCD 18/14 Q1016

METARs EXPIRÉS :
  • 250520Z AUTO 24003KT 200V260 9999 NCD 17/13 Q1016
  • 250450Z AUTO 23003KT 9999 NCD 15/13 Q1016
  • 250420Z AUTO VRB02KT 9999 NCD 14/12 Q1016
  • 250350Z AUTO VRB01KT 9999 NCD 15/12 Q1016
  • 250320Z AUTO 23003KT 190V250 9999 NCD 15/12 Q1016
  • 250250Z AUTO 17003KT 9999 NCD 16/13 Q1016
  • 250220Z AUTO 16002KT 9999 SCT079/// 16/12 Q1016
  • 250150Z AUTO 18004KT 9999 FEW094/// SCT100/// 16/13 Q1016
  • 250120Z AUTO 19003KT 9999 SCT081/// BKN100/// 17/13 Q1017

TAF TAF LIPY
Valide du 25 à 06h jusqu'au 26 à 06h UTC


250500Z 2506/2606 VRB05KT 9999 SCT030
BECMG 2508/2510 03010KT
TEMPO 2512/2518 4000 TSRA
BECMG 2516/2518 33010KT



MET'MAP, la Météo Aéronautique d'un coup d'oeil ! - Copyright ORBIFLY Décembre 2007 - Disclaimer

ORBIFLY MET'MAP TEAM :

Programmation & Développement : Alexandra Zaïnal
Sur une idée originale de : Baudouin d'Aumeries
Soutien technique & logistique : Manuel Goepfert
Assistance : Marc-Olivier Méhu




SOURCES & CREDITS :

   NOAA